Time;durP1;ratioP1;P1;durP2;ratioP2;P2;SDS_P1;SDS_P2;PMS_P1;PMS_P2;Temp;Humidity;BMP_temperature;BMP_pressure;BME280_temperature;BME280_humidity;BME280_pressure;Samples;Min_cycle;Max_cycle;Signal;HPM_P1;HPM_P2
2022/08/02 00:02:41;;;;;;;15.85;8.70;;;23.00;88.80;;;;;;6147866;28;80869;-70
2022/08/02 00:05:41;;;;;;;16.23;8.00;;;23.10;88.00;;;;;;6146016;28;81499;-71
2022/08/02 00:08:42;;;;;;;11.73;8.00;;;23.20;87.30;;;;;;6159392;28;80696;-69
2022/08/02 00:11:42;;;;;;;10.88;7.05;;;23.10;87.60;;;;;;6159170;28;80483;-70
2022/08/02 00:14:43;;;;;;;13.32;8.05;;;23.10;87.90;;;;;;6159119;28;80395;-69
2022/08/02 00:17:43;;;;;;;14.40;7.30;;;23.20;87.40;;;;;;6142201;28;80500;-70
2022/08/02 00:20:44;;;;;;;12.80;7.13;;;23.30;87.00;;;;;;6134622;28;81878;-70
2022/08/02 00:23:45;;;;;;;14.40;7.00;;;23.30;86.70;;;;;;6144374;28;80034;-69
2022/08/02 00:26:45;;;;;;;8.98;7.03;;;23.20;87.30;;;;;;6158808;28;80585;-69
2022/08/02 00:29:46;;;;;;;11.63;7.78;;;23.10;87.60;;;;;;6145208;28;80861;-68
2022/08/02 00:32:46;;;;;;;8.98;6.68;;;23.20;87.30;;;;;;6157467;28;80987;-68
2022/08/02 00:35:47;;;;;;;11.65;6.55;;;23.30;87.30;;;;;;6157248;28;80627;-68
2022/08/02 00:38:47;;;;;;;9.77;7.05;;;23.30;87.00;;;;;;6139590;28;81208;-67
2022/08/02 00:41:48;;;;;;;13.55;6.47;;;23.30;87.30;;;;;;6110467;28;80562;-68
2022/08/02 00:44:48;;;;;;;11.77;6.95;;;23.20;87.00;;;;;;6132952;28;80722;-69
2022/08/02 00:47:49;;;;;;;8.45;5.03;;;23.20;87.30;;;;;;6143713;28;80377;-69
2022/08/02 00:50:49;;;;;;;10.73;6.28;;;23.30;86.60;;;;;;6145135;28;80708;-68
2022/08/02 00:53:50;;;;;;;9.65;6.15;;;23.40;86.20;;;;;;6140408;28;80315;-69
2022/08/02 00:56:50;;;;;;;7.80;5.63;;;23.50;85.60;;;;;;6161560;28;80547;-69
2022/08/02 00:59:51;;;;;;;10.38;6.55;;;23.60;85.20;;;;;;6162708;28;80897;-69
2022/08/02 01:02:51;;;;;;;9.60;6.18;;;23.70;84.80;;;;;;6147584;28;80849;-69
2022/08/02 01:05:52;;;;;;;8.02;6.20;;;23.70;84.30;;;;;;6149362;28;80487;-70
2022/08/02 01:08:52;;;;;;;9.23;6.28;;;23.80;84.10;;;;;;6162774;28;81916;-68
2022/08/02 01:11:53;;;;;;;10.00;6.55;;;23.70;84.10;;;;;;6161303;28;80055;-69
2022/08/02 01:14:53;;;;;;;8.88;6.72;;;23.70;84.50;;;;;;6155967;28;80329;-69
2022/08/02 01:17:54;;;;;;;12.95;6.95;;;23.60;84.70;;;;;;6162272;28;80184;-70
2022/08/02 01:20:54;;;;;;;11.10;5.53;;;23.60;84.90;;;;;;6162908;28;82208;-70
2022/08/02 01:23:55;;;;;;;18.02;6.72;;;23.60;85.00;;;;;;6158529;28;81421;-69
2022/08/02 01:26:55;;;;;;;10.32;5.88;;;23.60;85.20;;;;;;6146366;28;80447;-69
2022/08/02 01:29:56;;;;;;;6.82;5.57;;;23.70;85.00;;;;;;6153183;28;80401;-69
2022/08/02 01:32:56;;;;;;;13.35;6.68;;;23.70;84.90;;;;;;6138527;28;81131;-70
2022/08/02 01:35:57;;;;;;;12.90;5.82;;;23.60;85.50;;;;;;6138295;28;80686;-69
2022/08/02 01:38:57;;;;;;;9.90;5.70;;;23.60;85.20;;;;;;6141926;28;81216;-69
2022/08/02 01:41:58;;;;;;;10.60;6.07;;;23.60;85.30;;;;;;6162211;28;81217;-69
2022/08/02 01:44:58;;;;;;;8.13;6.30;;;23.60;85.20;;;;;;6161861;28;80432;-69
2022/08/02 01:47:59;;;;;;;7.70;6.40;;;23.60;85.40;;;;;;6152880;28;81838;-69
2022/08/02 01:50:59;;;;;;;12.13;6.68;;;23.50;85.80;;;;;;6144771;28;80252;-70
2022/08/02 01:54:00;;;;;;;9.27;6.00;;;23.50;85.90;;;;;;6163002;28;80285;-69
2022/08/02 01:57:00;;;;;;;13.32;6.20;;;23.60;85.80;;;;;;6148897;28;80736;-69
2022/08/02 02:00:01;;;;;;;12.90;6.68;;;23.60;85.90;;;;;;6148665;28;82223;-69
2022/08/02 02:03:03;;;;;;;7.72;5.82;;;23.60;85.90;;;;;;6137741;28;80581;-72
2022/08/02 02:06:03;;;;;;;10.20;6.60;;;23.50;86.30;;;;;;6163480;28;81542;-70
2022/08/02 02:09:04;;;;;;;10.15;7.57;;;23.40;87.20;;;;;;6152204;28;80858;-69
2022/08/02 02:12:04;;;;;;;9.52;6.78;;;23.40;87.30;;;;;;6137130;28;87060;-70
2022/08/02 02:15:04;;;;;;;9.98;6.45;;;23.40;87.30;;;;;;6147421;28;81468;-69
2022/08/02 02:18:05;;;;;;;9.32;5.65;;;23.50;86.90;;;;;;6137458;28;80834;-69
2022/08/02 02:21:05;;;;;;;8.65;6.38;;;23.50;87.00;;;;;;6159873;28;80201;-69
2022/08/02 02:24:06;;;;;;;9.23;6.35;;;23.40;87.70;;;;;;6140344;28;81119;-69
2022/08/02 02:27:06;;;;;;;8.30;6.07;;;23.40;87.70;;;;;;6137152;28;80471;-70
2022/08/02 02:30:07;;;;;;;8.32;6.13;;;23.50;87.30;;;;;;6153170;28;80360;-69
2022/08/02 02:33:07;;;;;;;9.65;6.75;;;23.50;87.40;;;;;;6152808;28;80538;-69
2022/08/02 02:36:08;;;;;;;11.00;6.13;;;23.50;87.40;;;;;;6150450;28;80562;-69
2022/08/02 02:39:08;;;;;;;11.70;6.68;;;23.40;87.50;;;;;;6136471;28;80541;-67
2022/08/02 02:42:09;;;;;;;8.80;6.22;;;23.40;87.80;;;;;;6149458;28;80300;-68
2022/08/02 02:45:09;;;;;;;7.43;5.25;;;23.50;87.60;;;;;;6145134;28;81141;-68
2022/08/02 02:48:10;;;;;;;8.98;6.35;;;23.60;86.90;;;;;;6138092;28;81619;-69
2022/08/02 02:51:10;;;;;;;6.30;5.68;;;23.70;86.50;;;;;;6158492;28;80414;-73
2022/08/02 02:54:11;;;;;;;9.52;6.43;;;23.70;86.30;;;;;;6143277;28;81633;-74
2022/08/02 02:57:11;;;;;;;7.50;5.85;;;23.80;85.90;;;;;;6152412;28;80418;-77
2022/08/02 03:00:12;;;;;;;9.07;6.57;;;23.80;85.50;;;;;;6161769;28;80234;-76
2022/08/02 03:03:12;;;;;;;8.65;5.28;;;23.90;85.60;;;;;;6158133;28;80394;-77
2022/08/02 03:06:13;;;;;;;8.57;6.03;;;23.90;85.50;;;;;;6145842;28;80477;-75
2022/08/02 03:09:13;;;;;;;10.60;6.30;;;23.90;85.20;;;;;;6147276;28;80078;-75
2022/08/02 03:12:14;;;;;;;12.27;7.43;;;23.80;85.70;;;;;;6140208;28;81032;-76
2022/08/02 03:15:14;;;;;;;9.32;7.30;;;23.70;86.20;;;;;;6143921;28;80725;-77
2022/08/02 03:18:15;;;;;;;10.00;7.25;;;23.60;86.90;;;;;;6144279;28;80396;-79
2022/08/02 03:21:15;;;;;;;15.75;7.97;;;23.50;87.60;;;;;;6138870;28;80594;-79
2022/08/02 03:24:16;;;;;;;13.40;8.38;;;23.50;87.60;;;;;;6123864;28;80610;-79
2022/08/02 03:27:16;;;;;;;12.15;7.82;;;23.50;88.30;;;;;;6132705;28;82010;-78
2022/08/02 03:30:17;;;;;;;12.65;8.40;;;23.50;87.90;;;;;;6128902;28;80434;-73
2022/08/02 03:33:17;;;;;;;10.65;7.55;;;23.50;87.90;;;;;;6123660;28;80691;-74
2022/08/02 03:36:18;;;;;;;12.85;8.57;;;23.30;88.80;;;;;;6122785;28;80584;-75
2022/08/02 03:39:18;;;;;;;12.48;8.13;;;23.40;88.70;;;;;;6136882;28;80795;-75
2022/08/02 03:42:19;;;;;;;12.63;7.90;;;23.40;88.70;;;;;;6131967;28;80478;-76
2022/08/02 03:45:19;;;;;;;17.42;10.27;;;23.40;88.80;;;;;;6122797;28;80327;-74
2022/08/02 03:48:20;;;;;;;10.63;7.82;;;23.30;89.20;;;;;;6145984;28;83475;-75
2022/08/02 03:51:20;;;;;;;14.57;8.63;;;23.40;88.90;;;;;;6152086;28;82902;-74
2022/08/02 03:54:21;;;;;;;16.30;8.93;;;23.50;88.90;;;;;;6136562;28;80114;-76
2022/08/02 03:57:21;;;;;;;16.67;10.30;;;23.60;87.90;;;;;;6152635;28;84843;-74
2022/08/02 04:00:22;;;;;;;17.98;11.05;;;23.60;88.20;;;;;;6156313;28;82832;-74
2022/08/02 04:03:22;;;;;;;20.38;11.15;;;23.60;88.40;;;;;;6147462;28;85597;-73
2022/08/02 04:06:23;;;;;;;22.83;13.15;;;23.50;88.30;;;;;;6139593;28;82789;-73
2022/08/02 04:09:23;;;;;;;23.10;14.52;;;23.60;88.40;;;;;;6140780;28;84511;-73
2022/08/02 04:12:24;;;;;;;24.75;13.52;;;23.40;89.20;;;;;;6145920;28;83056;-73
2022/08/02 04:15:24;;;;;;;24.48;14.43;;;23.30;90.10;;;;;;6153988;28;83101;-76
2022/08/02 04:18:24;;;;;;;25.40;13.50;;;23.40;89.70;;;;;;6155445;28;83311;-72
2022/08/02 04:21:25;;;;;;;24.73;13.88;;;23.50;89.10;;;;;;6146521;28;82997;-74
2022/08/02 04:24:25;;;;;;;20.58;11.98;;;23.50;89.40;;;;;;6168554;28;82636;-79
2022/08/02 04:27:26;;;;;;;16.58;9.40;;;23.60;88.50;;;;;;6177091;28;83042;-72
2022/08/02 04:30:26;;;;;;;21.98;11.20;;;23.80;87.90;;;;;;6155231;28;82926;-69
2022/08/02 04:33:27;;;;;;;13.25;8.85;;;23.90;87.60;;;;;;6139167;28;83183;-68
2022/08/02 04:36:27;;;;;;;15.82;9.00;;;24.00;86.90;;;;;;6155932;28;84016;-68
2022/08/02 04:39:28;;;;;;;11.98;8.85;;;24.20;86.20;;;;;;6158653;28;80483;-69
2022/08/02 04:42:28;;;;;;;12.48;8.05;;;24.30;86.00;;;;;;6140270;28;82103;-71
2022/08/02 04:45:29;;;;;;;15.88;9.63;;;24.40;85.40;;;;;;6149265;28;81081;-70
2022/08/02 04:48:29;;;;;;;14.43;9.15;;;24.40;85.40;;;;;;6149495;28;80590;-67
2022/08/02 04:51:30;;;;;;;13.25;8.93;;;24.50;84.90;;;;;;6138202;28;80558;-70
2022/08/02 04:54:30;;;;;;;15.23;9.48;;;24.60;85.10;;;;;;6138576;28;80184;-70
2022/08/02 05:00:50;;;;;;;13.32;8.75;;;24.70;85.00;;;;;;6152709;28;80431;-70
2022/08/02 05:03:50;;;;;;;10.55;7.63;;;24.70;84.90;;;;;;6154729;28;80478;-70
2022/08/02 05:06:51;;;;;;;14.65;8.50;;;24.80;84.70;;;;;;6162072;28;80517;-72
2022/08/02 05:09:51;;;;;;;13.75;8.20;;;24.90;84.50;;;;;;6147849;28;80442;-71
2022/08/02 05:12:52;;;;;;;11.25;7.78;;;24.90;84.20;;;;;;6144366;28;80938;-68
2022/08/02 05:15:52;;;;;;;12.48;7.90;;;24.90;84.30;;;;;;6155563;28;81247;-72
2022/08/02 05:18:53;;;;;;;20.08;11.52;;;24.90;83.80;;;;;;6163287;28;80499;-74
2022/08/02 05:21:53;;;;;;;19.38;11.27;;;24.90;84.00;;;;;;6144886;28;83254;-69
2022/08/02 05:24:54;;;;;;;22.20;12.65;;;24.90;83.10;;;;;;6160206;28;83180;-74
2022/08/02 05:27:54;;;;;;;23.40;14.73;;;24.90;83.10;;;;;;6135122;28;83581;-69
2022/08/02 05:30:55;;;;;;;32.03;17.58;;;24.90;82.50;;;;;;6139307;28;83838;-72
2022/08/02 05:33:55;;;;;;;40.08;19.65;;;24.90;82.10;;;;;;6152250;28;82989;-77
2022/08/02 05:36:56;;;;;;;44.30;19.60;;;24.80;82.10;;;;;;6159454;28;82986;-73
2022/08/02 05:39:56;;;;;;;40.67;18.45;;;24.60;82.80;;;;;;6158983;28;84404;-72
2022/08/02 05:42:57;;;;;;;36.17;17.05;;;24.50;83.10;;;;;;6136157;28;82907;-70
2022/08/02 05:45:57;;;;;;;35.92;17.67;;;24.40;83.40;;;;;;6149568;28;85634;-69
2022/08/02 05:48:58;;;;;;;31.90;16.65;;;24.30;83.90;;;;;;6157367;28;84699;-69
2022/08/02 05:51:58;;;;;;;30.65;16.13;;;24.40;83.90;;;;;;6144244;28;83372;-68
2022/08/02 05:54:58;;;;;;;27.98;14.98;;;24.40;83.70;;;;;;6143964;28;82902;-68
2022/08/02 05:57:59;;;;;;;28.42;15.50;;;24.50;83.40;;;;;;6153871;28;83357;-69
2022/08/02 06:00:59;;;;;;;29.73;14.25;;;24.50;83.70;;;;;;6142576;28;84242;-69
2022/08/02 06:04:00;;;;;;;23.95;14.23;;;24.50;83.50;;;;;;6151525;28;83319;-67
2022/08/02 06:07:05;;;;;;;23.45;13.10;;;24.60;83.60;;;;;;6150992;28;83993;-74
2022/08/02 06:10:06;;;;;;;22.13;12.82;;;24.60;84.10;;;;;;6151496;28;88933;-80
2022/08/02 06:13:06;;;;;;;35.08;13.63;;;24.90;83.10;;;;;;6145707;28;83243;-74
2022/08/02 06:16:07;;;;;;;21.77;12.63;;;25.20;81.70;;;;;;6150405;28;83230;-68
2022/08/02 06:19:07;;;;;;;18.80;10.73;;;25.50;80.60;;;;;;6155327;28;86131;-68
2022/08/02 06:22:14;;;;;;;24.33;12.68;;;25.50;80.10;;;;;;6141729;28;84027;-69
2022/08/02 06:25:14;;;;;;;36.42;22.90;;;25.70;79.20;;;;;;6140506;28;85767;-71
2022/08/02 06:28:15;;;;;;;51.40;39.13;;;25.80;80.00;;;;;;6135626;28;82969;-69
2022/08/02 06:31:16;;;;;;;35.63;24.38;;;25.90;78.70;;;;;;6139240;28;84716;-67
2022/08/02 06:34:16;;;;;;;31.27;21.73;;;26.00;78.10;;;;;;6154758;28;84058;-71
2022/08/02 06:37:16;;;;;;;29.90;19.17;;;26.00;77.30;;;;;;6146739;28;82986;-71
2022/08/02 06:40:17;;;;;;;24.23;15.10;;;26.00;77.50;;;;;;6146802;28;83038;-67
2022/08/02 06:43:17;;;;;;;23.60;15.35;;;26.10;77.10;;;;;;6148163;28;83010;-68
2022/08/02 06:46:18;;;;;;;19.95;13.18;;;26.00;76.50;;;;;;6134986;28;83536;-71
2022/08/02 06:49:19;;;;;;;21.38;13.77;;;25.80;76.60;;;;;;6150268;28;84698;-77
2022/08/02 06:52:19;;;;;;;20.48;13.23;;;25.70;77.00;;;;;;6149421;28;83490;-70
2022/08/02 06:55:20;;;;;;;23.42;13.82;;;25.70;77.40;;;;;;6141669;28;82733;-69
2022/08/02 06:58:20;;;;;;;20.42;13.10;;;25.60;77.20;;;;;;6138719;28;83502;-73
2022/08/02 07:01:21;;;;;;;19.23;12.90;;;25.50;78.10;;;;;;6143345;28;83591;-68
2022/08/02 07:04:21;;;;;;;21.42;11.82;;;25.40;78.70;;;;;;6143955;28;82837;-65
2022/08/02 07:07:21;;;;;;;25.95;13.48;;;25.40;78.90;;;;;;6154190;28;83793;-72
2022/08/02 07:10:22;;;;;;;20.77;12.45;;;25.40;79.30;;;;;;6143026;28;82995;-68
2022/08/02 07:13:23;;;;;;;35.13;12.30;;;25.20;78.80;;;;;;6150562;28;83984;-63
2022/08/02 07:16:23;;;;;;;30.45;15.52;;;25.10;79.10;;;;;;6156617;28;83123;-67
2022/08/02 07:19:23;;;;;;;25.77;14.82;;;24.80;78.80;;;;;;6152134;28;83268;-67
2022/08/02 07:22:25;;;;;;;22.92;13.88;;;24.60;79.80;;;;;;6134283;28;83122;-68
2022/08/02 07:25:26;;;;;;;24.30;13.60;;;24.60;79.90;;;;;;6149304;28;83470;-68
2022/08/02 07:28:26;;;;;;;23.35;13.32;;;24.70;79.50;;;;;;6155241;28;83150;-68
2022/08/02 07:31:27;;;;;;;20.30;12.63;;;24.70;79.60;;;;;;6155905;28;84013;-68
2022/08/02 07:34:27;;;;;;;22.17;12.73;;;24.60;80.40;;;;;;6133386;28;83825;-68
2022/08/02 07:37:28;;;;;;;38.92;14.27;;;24.50;80.80;;;;;;6149268;28;84335;-68
2022/08/02 07:40:28;;;;;;;22.73;12.15;;;24.70;80.90;;;;;;6148565;28;83713;-68
2022/08/02 07:43:29;;;;;;;17.50;11.70;;;24.70;80.30;;;;;;6131626;28;83627;-69
2022/08/02 07:46:31;;;;;;;21.95;12.68;;;24.80;80.70;;;;;;6131550;28;83816;-68
2022/08/02 07:49:31;;;;;;;23.90;11.68;;;24.90;79.80;;;;;;6150079;28;83269;-68
2022/08/02 07:52:32;;;;;;;20.88;11.55;;;24.90;80.00;;;;;;6154404;28;82993;-68
2022/08/02 07:55:32;;;;;;;18.60;10.95;;;24.90;79.70;;;;;;6153063;28;83392;-68
2022/08/02 07:58:33;;;;;;;17.48;10.82;;;24.90;79.70;;;;;;6142880;28;83077;-68
2022/08/02 08:01:33;;;;;;;17.55;11.10;;;24.90;79.40;;;;;;6154195;28;84166;-67
2022/08/02 08:04:34;;;;;;;18.65;11.75;;;25.00;78.70;;;;;;6154493;28;83345;-68
2022/08/02 08:07:34;;;;;;;17.92;11.60;;;25.00;78.40;;;;;;6149941;28;83996;-68
2022/08/02 08:10:34;;;;;;;17.02;10.90;;;24.90;78.60;;;;;;6144079;28;83116;-67
2022/08/02 08:13:35;;;;;;;18.50;11.13;;;25.00;78.80;;;;;;6131740;28;84125;-68
2022/08/02 08:16:35;;;;;;;15.40;10.50;;;25.00;78.80;;;;;;6129714;28;84904;-69
2022/08/02 08:19:36;;;;;;;15.98;10.60;;;25.00;78.80;;;;;;6134481;28;83357;-68
2022/08/02 08:22:36;;;;;;;16.15;10.27;;;25.00;79.50;;;;;;6151114;28;85546;-68
2022/08/02 08:25:37;;;;;;;15.18;10.77;;;25.00;79.60;;;;;;6149496;28;83042;-68
2022/08/02 08:28:37;;;;;;;17.35;10.68;;;25.10;79.20;;;;;;6131255;28;83250;-68
2022/08/02 08:31:38;;;;;;;15.75;10.00;;;25.10;78.50;;;;;;6129798;28;84299;-68
2022/08/02 08:34:38;;;;;;;14.25;9.40;;;25.10;78.30;;;;;;6144371;28;83268;-68
2022/08/02 08:37:39;;;;;;;14.80;9.60;;;25.10;78.80;;;;;;6134087;28;84080;-68
2022/08/02 08:40:40;;;;;;;13.88;9.73;;;25.10;78.90;;;;;;6126543;28;80523;-68
2022/08/02 08:43:41;;;;;;;16.73;10.07;;;25.10;78.50;;;;;;6111443;28;80555;-68
2022/08/02 08:46:42;;;;;;;15.15;9.45;;;25.10;78.10;;;;;;6130765;28;83255;-68
2022/08/02 08:49:42;;;;;;;16.25;10.13;;;25.10;78.80;;;;;;6111181;28;83053;-69
2022/08/02 08:52:43;;;;;;;10.88;8.27;;;25.20;78.20;;;;;;6121818;28;83269;-69
2022/08/02 08:55:43;;;;;;;13.45;8.82;;;25.20;78.70;;;;;;6126286;28;83133;-69
2022/08/02 08:58:46;;;;;;;16.08;9.65;;;25.20;77.70;;;;;;6123328;28;80531;-69
2022/08/02 09:01:46;;;;;;;11.32;8.75;;;25.10;76.70;;;;;;6123167;28;80412;-69
2022/08/02 09:04:47;;;;;;;14.70;8.68;;;25.20;77.70;;;;;;6141653;28;81765;-69
2022/08/02 09:07:47;;;;;;;11.98;8.55;;;25.20;78.00;;;;;;6134603;28;80838;-67
2022/08/02 09:10:48;;;;;;;13.43;9.65;;;25.20;77.40;;;;;;6152714;28;80977;-68
2022/08/02 09:13:48;;;;;;;12.48;9.25;;;25.30;76.20;;;;;;6150402;28;81642;-68
2022/08/02 09:16:49;;;;;;;12.10;8.95;;;25.30;76.70;;;;;;6146078;28;81570;-68
2022/08/02 09:19:49;;;;;;;11.45;8.18;;;25.30;76.90;;;;;;6143058;28;80383;-68
2022/08/02 09:22:50;;;;;;;14.95;8.25;;;25.30;77.40;;;;;;6141310;28;80683;-68
2022/08/02 09:25:50;;;;;;;9.90;7.63;;;25.30;76.50;;;;;;6138530;28;82043;-68
2022/08/02 09:28:51;;;;;;;13.43;8.88;;;25.30;77.00;;;;;;6142105;28;80371;-68
2022/08/02 09:31:51;;;;;;;10.80;7.28;;;25.30;77.40;;;;;;6161437;28;80577;-69
2022/08/02 09:34:52;;;;;;;11.68;7.55;;;25.30;76.60;;;;;;6150032;28;80640;-69
2022/08/02 09:37:52;;;;;;;9.50;7.15;;;25.30;76.90;;;;;;6156535;28;80451;-69
2022/08/02 09:40:53;;;;;;;9.65;7.07;;;25.40;76.70;;;;;;6161772;28;80267;-69
2022/08/02 09:43:54;;;;;;;10.75;7.13;;;25.40;76.80;;;;;;6146310;28;80560;-68
2022/08/02 09:46:54;;;;;;;11.55;5.82;;;25.40;76.50;;;;;;6147818;28;80694;-69
2022/08/02 09:49:54;;;;;;;10.23;6.57;;;25.40;76.60;;;;;;6159857;28;80875;-68
2022/08/02 09:52:56;;;;;;;7.22;6.07;;;25.40;76.90;;;;;;6153683;28;80902;-68
2022/08/02 09:55:56;;;;;;;7.75;6.13;;;25.40;77.00;;;;;;6150612;28;80707;-68
2022/08/02 09:58:57;;;;;;;6.55;5.50;;;25.40;76.00;;;;;;6151693;28;83257;-69
2022/08/02 10:01:57;;;;;;;9.65;6.18;;;25.40;76.70;;;;;;6161215;28;81534;-68
2022/08/02 10:04:57;;;;;;;10.52;5.75;;;25.40;77.00;;;;;;6158948;28;81891;-68
2022/08/02 10:07:58;;;;;;;7.60;5.32;;;25.40;75.90;;;;;;6160642;28;81420;-68
2022/08/02 10:11:02;;;;;;;6.85;5.10;;;25.40;75.60;;;;;;6144743;28;81200;-68
2022/08/02 10:14:03;;;;;;;5.70;5.10;;;25.50;75.80;;;;;;6136771;28;81109;-68
2022/08/02 10:17:04;;;;;;;6.53;5.43;;;25.50;75.70;;;;;;6136707;28;80639;-68
2022/08/02 10:20:04;;;;;;;9.40;5.40;;;25.50;76.10;;;;;;6147949;28;80803;-68
2022/08/02 10:23:05;;;;;;;7.22;5.22;;;25.60;75.20;;;;;;6141285;28;80324;-68
2022/08/02 10:26:05;;;;;;;8.35;5.55;;;25.60;74.80;;;;;;6137386;28;81960;-68
2022/08/02 10:29:06;;;;;;;8.20;5.75;;;25.60;73.60;;;;;;6149731;28;80523;-68
2022/08/02 10:32:06;;;;;;;8.88;6.47;;;25.70;73.00;;;;;;6139464;28;80520;-68
2022/08/02 10:35:07;;;;;;;11.45;6.47;;;25.60;72.90;;;;;;6160161;28;81510;-68
2022/08/02 10:38:07;;;;;;;8.25;6.70;;;25.60;72.50;;;;;;6136512;28;80519;-68
2022/08/02 10:41:08;;;;;;;8.27;6.95;;;25.60;71.70;;;;;;6135782;28;81665;-68
2022/08/02 10:44:08;;;;;;;9.70;6.85;;;25.60;71.50;;;;;;6141328;28;81725;-68
2022/08/02 10:47:09;;;;;;;8.77;7.30;;;25.60;71.70;;;;;;6146938;28;80383;-67
2022/08/02 10:50:10;;;;;;;11.70;6.97;;;25.60;71.30;;;;;;6160413;28;80328;-68
2022/08/02 10:53:10;;;;;;;11.68;7.07;;;25.50;69.80;;;;;;6159982;28;80605;-67
2022/08/02 10:56:11;;;;;;;10.07;7.05;;;25.60;69.80;;;;;;6154954;28;80529;-67
2022/08/02 10:59:11;;;;;;;12.38;7.40;;;25.60;69.50;;;;;;6156545;28;80354;-68
2022/08/02 11:02:12;;;;;;;9.40;7.40;;;25.60;70.10;;;;;;6136168;28;80433;-67
2022/08/02 11:05:12;;;;;;;11.00;7.93;;;25.60;69.20;;;;;;6160419;28;80568;-66
2022/08/02 11:08:13;;;;;;;8.90;7.47;;;25.60;69.50;;;;;;6160212;28;80375;-67
2022/08/02 11:11:13;;;;;;;11.30;8.27;;;25.60;70.80;;;;;;6141921;28;79977;-67
2022/08/02 11:14:14;;;;;;;10.55;8.32;;;25.60;69.80;;;;;;6135925;28;81812;-68
2022/08/02 11:17:14;;;;;;;10.95;7.95;;;25.50;69.30;;;;;;6147340;28;79916;-67
2022/08/02 11:20:15;;;;;;;11.00;7.85;;;25.50;69.60;;;;;;6150862;28;81861;-68
2022/08/02 11:23:16;;;;;;;9.23;6.97;;;25.50;69.80;;;;;;6135348;28;80337;-67
2022/08/02 11:26:16;;;;;;;9.77;7.47;;;25.50;69.80;;;;;;6136783;28;80284;-67
2022/08/02 11:29:17;;;;;;;10.05;7.80;;;25.60;70.00;;;;;;6154096;28;81179;-68
2022/08/02 11:32:17;;;;;;;9.60;7.88;;;25.60;69.80;;;;;;6139616;28;84254;-68
2022/08/02 11:35:18;;;;;;;12.77;8.48;;;25.60;69.10;;;;;;6148767;28;81112;-67
2022/08/02 11:38:18;;;;;;;10.88;7.95;;;25.60;68.70;;;;;;6135530;28;81221;-67
2022/08/02 11:41:19;;;;;;;10.50;8.25;;;25.70;69.00;;;;;;6148666;28;80465;-67
2022/08/02 11:44:19;;;;;;;12.85;9.23;;;25.70;68.60;;;;;;6134534;28;80509;-68
2022/08/02 11:47:20;;;;;;;16.30;9.68;;;25.60;69.10;;;;;;6151976;28;80488;-67
2022/08/02 11:50:23;;;;;;;14.18;10.43;;;25.60;69.50;;;;;;6159274;28;80338;-68
2022/08/02 11:53:24;;;;;;;14.63;11.20;;;25.70;69.50;;;;;;6143677;28;82732;-67
2022/08/02 11:56:25;;;;;;;11.23;9.48;;;25.70;68.70;;;;;;6153590;28;83465;-67
2022/08/02 11:59:25;;;;;;;19.27;12.10;;;25.70;68.30;;;;;;6139888;28;83308;-67
2022/08/02 12:02:26;;;;;;;14.57;10.95;;;25.70;68.10;;;;;;6133400;28;83066;-67
2022/08/02 12:05:26;;;;;;;16.13;10.73;;;25.70;68.20;;;;;;6155552;28;84330;-68
2022/08/02 12:08:27;;;;;;;14.73;10.38;;;25.70;68.30;;;;;;6146152;28;83655;-68
2022/08/02 12:11:27;;;;;;;10.25;9.07;;;25.70;68.00;;;;;;6147630;28;83260;-68
2022/08/02 12:14:28;;;;;;;12.82;9.35;;;25.70;68.10;;;;;;6141785;28;83366;-68
2022/08/02 12:20:48;;;;;;;13.57;8.98;;;25.60;68.20;;;;;;6154730;28;85329;-68
2022/08/02 12:23:49;;;;;;;10.25;8.90;;;25.60;67.50;;;;;;6122249;28;86160;-68
2022/08/02 12:26:49;;;;;;;14.02;8.95;;;25.60;67.60;;;;;;6144395;28;80929;-68
2022/08/02 12:29:50;;;;;;;14.57;9.55;;;25.60;67.60;;;;;;6156563;28;81888;-68
2022/08/02 12:32:51;;;;;;;17.52;9.73;;;25.60;67.50;;;;;;6134943;28;80257;-68
2022/08/02 12:35:51;;;;;;;15.18;9.75;;;25.60;67.60;;;;;;6133483;28;80843;-69
2022/08/02 12:38:52;;;;;;;21.30;11.02;;;25.60;68.30;;;;;;6137237;28;82000;-68
2022/08/02 12:41:52;;;;;;;19.33;12.40;;;25.70;68.30;;;;;;6141118;28;82975;-68
2022/08/02 12:44:53;;;;;;;19.85;12.23;;;25.70;68.40;;;;;;6145768;28;83189;-68
2022/08/02 12:47:53;;;;;;;22.15;12.88;;;25.60;68.30;;;;;;6158555;28;83221;-68
2022/08/02 12:50:54;;;;;;;16.33;11.38;;;25.70;68.10;;;;;;6140639;28;84037;-68
2022/08/02 12:53:56;;;;;;;17.92;11.80;;;25.70;67.80;;;;;;6143339;28;83048;-68
2022/08/02 12:56:57;;;;;;;14.65;10.90;;;25.70;67.50;;;;;;6143426;28;84085;-68
2022/08/02 12:59:57;;;;;;;11.50;9.30;;;25.70;67.80;;;;;;6144349;28;83911;-68
2022/08/02 13:02:58;;;;;;;13.98;10.43;;;25.70;67.30;;;;;;6141839;28;83438;-68
2022/08/02 13:05:58;;;;;;;11.57;9.60;;;25.70;67.20;;;;;;6134875;28;82876;-68
2022/08/02 13:08:59;;;;;;;11.00;9.10;;;25.80;67.70;;;;;;6161352;28;84369;-67
2022/08/02 13:11:59;;;;;;;14.18;10.05;;;25.70;67.00;;;;;;6151450;28;79968;-69
2022/08/02 13:15:00;;;;;;;11.38;8.88;;;25.80;67.60;;;;;;6148348;28;83046;-67
2022/08/02 13:18:00;;;;;;;14.65;9.45;;;25.80;67.80;;;;;;6137555;28;83097;-68
2022/08/02 13:21:03;;;;;;;12.60;9.55;;;25.80;67.70;;;;;;6151841;28;80505;-68
2022/08/02 13:24:03;;;;;;;12.57;9.38;;;25.80;67.40;;;;;;6140848;28;81488;-68
2022/08/02 13:27:04;;;;;;;14.20;10.05;;;25.80;68.30;;;;;;6156443;28;80949;-68
2022/08/02 13:30:04;;;;;;;13.80;9.35;;;25.80;67.10;;;;;;6144945;28;83010;-68
2022/08/02 13:33:05;;;;;;;11.32;9.45;;;25.80;67.20;;;;;;6150841;28;81726;-69
2022/08/02 13:36:05;;;;;;;13.95;9.60;;;25.90;67.10;;;;;;6159262;28;82271;-68
2022/08/02 13:39:08;;;;;;;12.98;10.68;;;25.90;68.30;;;;;;6142962;28;81343;-69
2022/08/02 13:42:08;;;;;;;10.40;9.30;;;25.90;66.90;;;;;;6155856;28;83453;-68
2022/08/02 13:45:08;;;;;;;13.52;9.20;;;25.90;68.10;;;;;;6151027;28;84573;-69
2022/08/02 13:48:09;;;;;;;15.50;9.63;;;25.90;66.90;;;;;;6137249;28;81474;-68
2022/08/02 13:51:11;;;;;;;10.10;7.95;;;25.90;66.40;;;;;;6140052;28;80342;-68
2022/08/02 13:54:12;;;;;;;11.02;8.77;;;25.90;66.30;;;;;;6160776;28;80685;-68
2022/08/02 13:57:12;;;;;;;8.98;7.68;;;25.90;65.80;;;;;;6161447;28;80188;-68
2022/08/02 14:00:13;;;;;;;11.60;7.45;;;25.90;65.60;;;;;;6160237;28;80463;-68
2022/08/02 14:03:13;;;;;;;11.88;8.60;;;25.90;66.60;;;;;;6152878;28;82642;-68
2022/08/02 14:06:14;;;;;;;9.45;7.93;;;25.90;66.50;;;;;;6137292;28;80459;-69
2022/08/02 14:09:14;;;;;;;11.13;7.45;;;25.90;66.90;;;;;;6154036;28;80420;-68
2022/08/02 14:12:15;;;;;;;10.10;8.57;;;25.90;67.60;;;;;;6159730;28;80400;-68
2022/08/02 14:15:15;;;;;;;8.50;7.60;;;25.90;67.10;;;;;;6147254;28;80581;-69
2022/08/02 14:18:16;;;;;;;7.55;6.72;;;25.90;65.60;;;;;;6149072;28;81375;-68
2022/08/02 14:21:16;;;;;;;10.68;7.63;;;25.90;65.30;;;;;;6139934;28;80317;-68
2022/08/02 14:24:17;;;;;;;9.38;6.93;;;25.90;66.80;;;;;;6144524;28;80541;-68
2022/08/02 14:27:17;;;;;;;10.40;7.28;;;25.90;65.70;;;;;;6157399;28;80939;-69
2022/08/02 14:30:18;;;;;;;8.52;5.72;;;25.90;65.70;;;;;;6151523;28;82923;-68
2022/08/02 14:33:18;;;;;;;5.93;5.35;;;25.90;65.40;;;;;;6150181;28;80700;-71
2022/08/02 14:36:19;;;;;;;12.20;5.97;;;25.90;65.60;;;;;;6150320;28;80913;-68
2022/08/02 14:39:19;;;;;;;10.90;5.55;;;25.90;65.80;;;;;;6157183;28;80482;-68
2022/08/02 14:42:19;;;;;;;6.97;5.00;;;25.90;66.10;;;;;;6161319;28;80398;-68
2022/08/02 14:45:25;;;;;;;4.72;4.30;;;25.90;65.70;;;;;;6147111;28;80365;-68
2022/08/02 14:48:25;;;;;;;7.10;4.63;;;25.90;66.00;;;;;;6153033;28;80390;-65
2022/08/02 14:51:26;;;;;;;14.20;5.78;;;25.90;66.30;;;;;;6152602;28;80406;-68
2022/08/02 14:54:28;;;;;;;8.20;5.43;;;25.90;66.40;;;;;;6160646;28;80579;-68
2022/08/02 14:57:28;;;;;;;7.93;5.07;;;25.90;66.60;;;;;;6148911;28;81631;-69
2022/08/02 15:00:28;;;;;;;8.95;5.35;;;25.90;66.20;;;;;;6149552;28;80396;-67
2022/08/02 15:03:29;;;;;;;13.20;5.63;;;26.00;66.40;;;;;;6149143;28;81552;-68
2022/08/02 15:06:31;;;;;;;4.95;4.40;;;25.90;66.50;;;;;;6153425;28;82211;-68
2022/08/02 15:09:32;;;;;;;6.35;4.95;;;26.00;66.20;;;;;;6140265;28;83488;-69
2022/08/02 15:12:32;;;;;;;6.35;4.30;;;26.00;66.10;;;;;;6147474;28;80440;-68
2022/08/02 15:15:33;;;;;;;7.93;4.10;;;26.00;66.20;;;;;;6145037;28;80337;-68
2022/08/02 15:18:33;;;;;;;4.47;4.07;;;26.00;65.70;;;;;;6153751;28;80426;-66
2022/08/02 15:21:34;;;;;;;6.25;4.38;;;26.00;65.60;;;;;;6137993;28;80403;-69
2022/08/02 15:24:34;;;;;;;8.98;4.53;;;26.00;66.00;;;;;;6143065;28;80305;-69
2022/08/02 15:27:35;;;;;;;6.53;4.65;;;26.00;65.40;;;;;;6140544;28;80398;-68
2022/08/02 15:30:35;;;;;;;5.15;4.65;;;26.00;64.50;;;;;;6143157;28;80459;-70
2022/08/02 15:33:36;;;;;;;5.13;4.63;;;26.00;63.90;;;;;;6145084;28;80538;-69